sensor_id;sensor_type;location;lat;lon;timestamp;P1;durP1;ratioP1;P2;durP2;ratioP2
20251;SDS011;10284;58.364;15.550;2023-06-24T00:01:16;3.70;;;2.50;;
20251;SDS011;10284;58.364;15.550;2023-06-24T00:03:41;3.90;;;2.78;;
20251;SDS011;10284;58.364;15.550;2023-06-24T00:06:11;3.78;;;2.42;;
20251;SDS011;10284;58.364;15.550;2023-06-24T00:08:46;2.80;;;2.50;;
20251;SDS011;10284;58.364;15.550;2023-06-24T00:11:12;2.63;;;2.42;;
20251;SDS011;10284;58.364;15.550;2023-06-24T00:13:41;2.95;;;2.50;;
20251;SDS011;10284;58.364;15.550;2023-06-24T00:16:07;4.70;;;2.47;;
20251;SDS011;10284;58.364;15.550;2023-06-24T00:18:33;3.80;;;2.78;;
20251;SDS011;10284;58.364;15.550;2023-06-24T00:20:59;3.67;;;2.60;;
20251;SDS011;10284;58.364;15.550;2023-06-24T00:23:26;3.80;;;2.58;;
20251;SDS011;10284;58.364;15.550;2023-06-24T00:25:52;5.05;;;3.20;;
20251;SDS011;10284;58.364;15.550;2023-06-24T00:28:18;4.35;;;2.90;;
20251;SDS011;10284;58.364;15.550;2023-06-24T00:30:44;5.28;;;2.90;;
20251;SDS011;10284;58.364;15.550;2023-06-24T00:33:09;3.17;;;2.50;;
20251;SDS011;10284;58.364;15.550;2023-06-24T00:35:36;4.47;;;2.67;;
20251;SDS011;10284;58.364;15.550;2023-06-24T00:38:02;4.35;;;2.75;;
20251;SDS011;10284;58.364;15.550;2023-06-24T00:40:28;4.93;;;2.72;;
20251;SDS011;10284;58.364;15.550;2023-06-24T00:42:54;3.55;;;2.85;;
20251;SDS011;10284;58.364;15.550;2023-06-24T00:45:20;3.75;;;2.67;;
20251;SDS011;10284;58.364;15.550;2023-06-24T00:47:45;3.95;;;2.65;;
20251;SDS011;10284;58.364;15.550;2023-06-24T00:50:11;3.60;;;2.70;;
20251;SDS011;10284;58.364;15.550;2023-06-24T00:52:39;6.30;;;2.30;;
20251;SDS011;10284;58.364;15.550;2023-06-24T00:55:08;3.10;;;2.80;;
20251;SDS011;10284;58.364;15.550;2023-06-24T00:57:38;4.60;;;3.08;;
20251;SDS011;10284;58.364;15.550;2023-06-24T01:00:05;3.42;;;2.58;;
20251;SDS011;10284;58.364;15.550;2023-06-24T01:02:36;3.28;;;2.90;;
20251;SDS011;10284;58.364;15.550;2023-06-24T01:05:03;3.38;;;2.70;;
20251;SDS011;10284;58.364;15.550;2023-06-24T01:07:32;3.30;;;2.90;;
20251;SDS011;10284;58.364;15.550;2023-06-24T01:10:00;2.80;;;2.53;;
20251;SDS011;10284;58.364;15.550;2023-06-24T01:12:26;3.45;;;2.70;;
20251;SDS011;10284;58.364;15.550;2023-06-24T01:14:51;3.10;;;2.70;;
20251;SDS011;10284;58.364;15.550;2023-06-24T01:17:21;3.33;;;2.90;;
20251;SDS011;10284;58.364;15.550;2023-06-24T01:19:54;3.13;;;2.70;;
20251;SDS011;10284;58.364;15.550;2023-06-24T01:25:24;4.53;;;2.65;;
20251;SDS011;10284;58.364;15.550;2023-06-24T01:33:58;2.65;;;2.45;;
20251;SDS011;10284;58.364;15.550;2023-06-24T01:36:27;3.17;;;2.53;;
20251;SDS011;10284;58.364;15.550;2023-06-24T01:39:12;4.03;;;2.80;;
20251;SDS011;10284;58.364;15.550;2023-06-24T01:41:43;3.35;;;2.80;;
20251;SDS011;10284;58.364;15.550;2023-06-24T01:44:11;4.00;;;2.90;;
20251;SDS011;10284;58.364;15.550;2023-06-24T01:46:38;3.33;;;2.67;;
20251;SDS011;10284;58.364;15.550;2023-06-24T01:49:04;3.95;;;3.17;;
20251;SDS011;10284;58.364;15.550;2023-06-24T01:51:33;3.97;;;3.03;;
20251;SDS011;10284;58.364;15.550;2023-06-24T01:54:04;3.95;;;2.47;;
20251;SDS011;10284;58.364;15.550;2023-06-24T01:56:31;4.78;;;3.30;;
20251;SDS011;10284;58.364;15.550;2023-06-24T01:59:00;3.60;;;2.85;;
20251;SDS011;10284;58.364;15.550;2023-06-24T02:01:29;4.20;;;3.03;;
20251;SDS011;10284;58.364;15.550;2023-06-24T02:03:56;3.92;;;3.13;;
20251;SDS011;10284;58.364;15.550;2023-06-24T02:06:22;5.63;;;3.08;;
20251;SDS011;10284;58.364;15.550;2023-06-24T02:08:49;4.40;;;2.92;;
20251;SDS011;10284;58.364;15.550;2023-06-24T02:11:16;4.40;;;2.83;;
20251;SDS011;10284;58.364;15.550;2023-06-24T02:13:42;5.45;;;2.88;;
20251;SDS011;10284;58.364;15.550;2023-06-24T02:16:08;4.00;;;2.92;;
20251;SDS011;10284;58.364;15.550;2023-06-24T02:18:35;7.03;;;3.00;;
20251;SDS011;10284;58.364;15.550;2023-06-24T02:21:02;4.32;;;2.88;;
20251;SDS011;10284;58.364;15.550;2023-06-24T02:23:28;3.42;;;2.95;;
20251;SDS011;10284;58.364;15.550;2023-06-24T02:25:54;2.92;;;2.63;;
20251;SDS011;10284;58.364;15.550;2023-06-24T02:28:21;3.42;;;3.13;;
20251;SDS011;10284;58.364;15.550;2023-06-24T02:30:46;4.32;;;3.08;;
20251;SDS011;10284;58.364;15.550;2023-06-24T02:33:12;3.53;;;3.00;;
20251;SDS011;10284;58.364;15.550;2023-06-24T02:35:38;3.25;;;2.88;;
20251;SDS011;10284;58.364;15.550;2023-06-24T02:38:06;3.72;;;3.20;;
20251;SDS011;10284;58.364;15.550;2023-06-24T02:40:32;5.38;;;2.95;;
20251;SDS011;10284;58.364;15.550;2023-06-24T02:42:58;4.55;;;2.95;;
20251;SDS011;10284;58.364;15.550;2023-06-24T02:45:24;4.57;;;3.20;;
20251;SDS011;10284;58.364;15.550;2023-06-24T02:47:50;3.03;;;2.72;;
20251;SDS011;10284;58.364;15.550;2023-06-24T02:50:15;3.35;;;3.05;;
20251;SDS011;10284;58.364;15.550;2023-06-24T02:52:41;2.95;;;2.70;;
20251;SDS011;10284;58.364;15.550;2023-06-24T02:55:07;2.90;;;2.60;;
20251;SDS011;10284;58.364;15.550;2023-06-24T02:57:33;3.60;;;2.88;;
20251;SDS011;10284;58.364;15.550;2023-06-24T03:00:01;3.65;;;2.97;;
20251;SDS011;10284;58.364;15.550;2023-06-24T03:02:30;2.90;;;2.70;;
20251;SDS011;10284;58.364;15.550;2023-06-24T03:04:56;3.47;;;2.90;;
20251;SDS011;10284;58.364;15.550;2023-06-24T03:07:22;3.75;;;3.20;;
20251;SDS011;10284;58.364;15.550;2023-06-24T03:09:47;4.70;;;3.15;;
20251;SDS011;10284;58.364;15.550;2023-06-24T03:12:13;4.22;;;2.90;;
20251;SDS011;10284;58.364;15.550;2023-06-24T03:14:38;3.13;;;2.72;;
20251;SDS011;10284;58.364;15.550;2023-06-24T03:17:04;3.10;;;2.80;;
20251;SDS011;10284;58.364;15.550;2023-06-24T03:19:29;3.15;;;2.70;;
20251;SDS011;10284;58.364;15.550;2023-06-24T03:21:54;3.10;;;2.80;;
20251;SDS011;10284;58.364;15.550;2023-06-24T03:24:20;2.97;;;2.50;;
20251;SDS011;10284;58.364;15.550;2023-06-24T03:26:46;2.75;;;2.55;;
20251;SDS011;10284;58.364;15.550;2023-06-24T03:29:11;2.83;;;2.63;;
20251;SDS011;10284;58.364;15.550;2023-06-24T03:31:37;3.63;;;2.72;;
20251;SDS011;10284;58.364;15.550;2023-06-24T03:34:09;3.45;;;2.95;;
20251;SDS011;10284;58.364;15.550;2023-06-24T03:36:35;3.63;;;2.60;;
20251;SDS011;10284;58.364;15.550;2023-06-24T03:39:03;4.30;;;2.85;;
20251;SDS011;10284;58.364;15.550;2023-06-24T03:41:29;3.45;;;2.90;;
20251;SDS011;10284;58.364;15.550;2023-06-24T03:43:54;4.43;;;2.92;;
20251;SDS011;10284;58.364;15.550;2023-06-24T03:46:20;3.70;;;3.05;;
20251;SDS011;10284;58.364;15.550;2023-06-24T03:48:46;7.40;;;2.63;;
20251;SDS011;10284;58.364;15.550;2023-06-24T03:51:12;5.05;;;2.75;;
20251;SDS011;10284;58.364;15.550;2023-06-24T03:53:37;6.47;;;3.03;;
20251;SDS011;10284;58.364;15.550;2023-06-24T03:56:03;3.55;;;3.25;;
20251;SDS011;10284;58.364;15.550;2023-06-24T03:58:29;8.18;;;3.50;;
20251;SDS011;10284;58.364;15.550;2023-06-24T04:00:54;3.90;;;2.95;;
20251;SDS011;10284;58.364;15.550;2023-06-24T04:03:22;4.72;;;3.00;;
20251;SDS011;10284;58.364;15.550;2023-06-24T04:05:50;3.75;;;3.05;;
20251;SDS011;10284;58.364;15.550;2023-06-24T04:08:16;3.33;;;3.03;;
20251;SDS011;10284;58.364;15.550;2023-06-24T04:10:42;4.38;;;3.22;;
20251;SDS011;10284;58.364;15.550;2023-06-24T04:13:08;3.55;;;3.25;;
20251;SDS011;10284;58.364;15.550;2023-06-24T04:15:33;5.05;;;3.30;;
20251;SDS011;10284;58.364;15.550;2023-06-24T04:17:59;4.13;;;3.55;;
20251;SDS011;10284;58.364;15.550;2023-06-24T04:20:24;3.50;;;3.20;;
20251;SDS011;10284;58.364;15.550;2023-06-24T04:22:50;6.50;;;3.30;;
20251;SDS011;10284;58.364;15.550;2023-06-24T04:25:15;4.95;;;3.70;;
20251;SDS011;10284;58.364;15.550;2023-06-24T04:27:41;5.78;;;3.58;;
20251;SDS011;10284;58.364;15.550;2023-06-24T04:30:07;5.00;;;3.67;;
20251;SDS011;10284;58.364;15.550;2023-06-24T04:32:32;4.10;;;3.70;;
20251;SDS011;10284;58.364;15.550;2023-06-24T04:34:59;7.47;;;4.28;;
20251;SDS011;10284;58.364;15.550;2023-06-24T04:37:25;4.95;;;3.72;;
20251;SDS011;10284;58.364;15.550;2023-06-24T04:39:51;4.15;;;3.75;;
20251;SDS011;10284;58.364;15.550;2023-06-24T04:42:16;6.35;;;4.03;;
20251;SDS011;10284;58.364;15.550;2023-06-24T04:44:42;4.80;;;3.83;;
20251;SDS011;10284;58.364;15.550;2023-06-24T04:47:07;4.20;;;3.80;;
20251;SDS011;10284;58.364;15.550;2023-06-24T04:49:33;5.38;;;4.15;;
20251;SDS011;10284;58.364;15.550;2023-06-24T04:52:01;4.68;;;3.97;;
20251;SDS011;10284;58.364;15.550;2023-06-24T04:54:27;7.30;;;4.80;;
20251;SDS011;10284;58.364;15.550;2023-06-24T04:56:53;5.88;;;4.00;;
20251;SDS011;10284;58.364;15.550;2023-06-24T04:59:20;5.43;;;4.28;;
20251;SDS011;10284;58.364;15.550;2023-06-24T05:01:46;5.00;;;4.53;;
20251;SDS011;10284;58.364;15.550;2023-06-24T05:04:12;4.60;;;3.85;;
20251;SDS011;10284;58.364;15.550;2023-06-24T05:06:37;6.50;;;4.20;;
20251;SDS011;10284;58.364;15.550;2023-06-24T05:09:03;5.05;;;4.00;;
20251;SDS011;10284;58.364;15.550;2023-06-24T05:11:28;4.47;;;4.07;;
20251;SDS011;10284;58.364;15.550;2023-06-24T05:13:54;7.35;;;4.38;;
20251;SDS011;10284;58.364;15.550;2023-06-24T05:16:19;5.45;;;4.57;;
20251;SDS011;10284;58.364;15.550;2023-06-24T05:18:45;5.07;;;4.30;;
20251;SDS011;10284;58.364;15.550;2023-06-24T05:21:10;5.20;;;3.80;;
20251;SDS011;10284;58.364;15.550;2023-06-24T05:23:36;5.70;;;3.85;;
20251;SDS011;10284;58.364;15.550;2023-06-24T05:26:01;4.97;;;3.95;;
20251;SDS011;10284;58.364;15.550;2023-06-24T05:28:27;5.65;;;3.85;;
20251;SDS011;10284;58.364;15.550;2023-06-24T05:30:52;6.05;;;4.40;;
20251;SDS011;10284;58.364;15.550;2023-06-24T05:33:18;7.13;;;4.60;;
20251;SDS011;10284;58.364;15.550;2023-06-24T05:35:43;6.18;;;4.20;;
20251;SDS011;10284;58.364;15.550;2023-06-24T05:38:09;6.88;;;3.97;;
20251;SDS011;10284;58.364;15.550;2023-06-24T05:40:34;4.25;;;3.85;;
20251;SDS011;10284;58.364;15.550;2023-06-24T05:43:00;6.70;;;4.45;;
20251;SDS011;10284;58.364;15.550;2023-06-24T05:45:28;5.78;;;4.07;;
20251;SDS011;10284;58.364;15.550;2023-06-24T05:47:53;5.15;;;3.90;;
20251;SDS011;10284;58.364;15.550;2023-06-24T05:50:19;4.40;;;3.60;;
20251;SDS011;10284;58.364;15.550;2023-06-24T05:52:44;3.92;;;3.35;;
20251;SDS011;10284;58.364;15.550;2023-06-24T05:55:10;4.28;;;3.47;;
20251;SDS011;10284;58.364;15.550;2023-06-24T05:57:35;4.60;;;3.33;;
20251;SDS011;10284;58.364;15.550;2023-06-24T06:00:01;6.38;;;3.50;;
20251;SDS011;10284;58.364;15.550;2023-06-24T06:02:28;5.15;;;3.25;;
20251;SDS011;10284;58.364;15.550;2023-06-24T06:04:53;4.05;;;3.22;;
20251;SDS011;10284;58.364;15.550;2023-06-24T06:07:19;6.45;;;3.53;;
20251;SDS011;10284;58.364;15.550;2023-06-24T06:09:45;3.80;;;3.33;;
20251;SDS011;10284;58.364;15.550;2023-06-24T06:12:10;3.40;;;3.10;;
20251;SDS011;10284;58.364;15.550;2023-06-24T06:14:36;3.47;;;3.17;;
20251;SDS011;10284;58.364;15.550;2023-06-24T06:17:01;4.22;;;3.28;;
20251;SDS011;10284;58.364;15.550;2023-06-24T06:19:27;4.25;;;3.55;;
20251;SDS011;10284;58.364;15.550;2023-06-24T06:21:52;3.72;;;3.42;;
20251;SDS011;10284;58.364;15.550;2023-06-24T06:24:17;3.35;;;3.03;;
20251;SDS011;10284;58.364;15.550;2023-06-24T06:26:43;3.58;;;3.28;;
20251;SDS011;10284;58.364;15.550;2023-06-24T06:29:09;4.00;;;3.38;;
20251;SDS011;10284;58.364;15.550;2023-06-24T06:31:37;4.43;;;3.28;;
20251;SDS011;10284;58.364;15.550;2023-06-24T06:34:03;3.85;;;3.28;;
20251;SDS011;10284;58.364;15.550;2023-06-24T06:36:28;4.13;;;3.50;;
20251;SDS011;10284;58.364;15.550;2023-06-24T06:38:54;3.30;;;3.00;;
20251;SDS011;10284;58.364;15.550;2023-06-24T06:41:19;3.42;;;3.13;;
20251;SDS011;10284;58.364;15.550;2023-06-24T06:43:49;3.75;;;2.83;;
20251;SDS011;10284;58.364;15.550;2023-06-24T06:46:15;4.57;;;2.92;;
20251;SDS011;10284;58.364;15.550;2023-06-24T06:48:41;4.05;;;3.53;;
20251;SDS011;10284;58.364;15.550;2023-06-24T06:51:06;3.28;;;3.00;;
20251;SDS011;10284;58.364;15.550;2023-06-24T06:53:32;3.15;;;2.83;;
20251;SDS011;10284;58.364;15.550;2023-06-24T06:55:57;3.95;;;3.10;;
20251;SDS011;10284;58.364;15.550;2023-06-24T06:58:23;3.80;;;3.30;;
20251;SDS011;10284;58.364;15.550;2023-06-24T07:00:49;4.72;;;3.10;;
20251;SDS011;10284;58.364;15.550;2023-06-24T07:03:15;3.22;;;2.92;;
20251;SDS011;10284;58.364;15.550;2023-06-24T07:05:40;3.60;;;2.88;;
20251;SDS011;10284;58.364;15.550;2023-06-24T07:08:06;3.75;;;3.33;;
20251;SDS011;10284;58.364;15.550;2023-06-24T07:10:31;3.78;;;3.30;;
20251;SDS011;10284;58.364;15.550;2023-06-24T07:12:57;5.35;;;3.20;;
20251;SDS011;10284;58.364;15.550;2023-06-24T07:15:24;3.97;;;3.50;;
20251;SDS011;10284;58.364;15.550;2023-06-24T07:17:52;3.55;;;3.20;;
20251;SDS011;10284;58.364;15.550;2023-06-24T07:20:18;4.95;;;3.25;;
20251;SDS011;10284;58.364;15.550;2023-06-24T07:22:44;3.63;;;3.05;;
20251;SDS011;10284;58.364;15.550;2023-06-24T07:25:10;3.58;;;3.10;;
20251;SDS011;10284;58.364;15.550;2023-06-24T07:27:36;3.65;;;3.35;;
20251;SDS011;10284;58.364;15.550;2023-06-24T07:30:01;3.22;;;2.90;;
20251;SDS011;10284;58.364;15.550;2023-06-24T07:32:27;3.85;;;3.30;;
20251;SDS011;10284;58.364;15.550;2023-06-24T07:34:52;5.47;;;3.53;;
20251;SDS011;10284;58.364;15.550;2023-06-24T07:37:18;3.58;;;3.03;;
20251;SDS011;10284;58.364;15.550;2023-06-24T07:39:43;5.13;;;3.17;;
20251;SDS011;10284;58.364;15.550;2023-06-24T07:42:09;4.63;;;3.28;;
20251;SDS011;10284;58.364;15.550;2023-06-24T07:44:34;6.63;;;3.72;;
20251;SDS011;10284;58.364;15.550;2023-06-24T07:47:01;5.43;;;3.28;;
20251;SDS011;10284;58.364;15.550;2023-06-24T07:49:27;4.93;;;3.42;;
20251;SDS011;10284;58.364;15.550;2023-06-24T07:51:53;4.45;;;3.10;;
20251;SDS011;10284;58.364;15.550;2023-06-24T07:54:18;4.55;;;3.55;;
20251;SDS011;10284;58.364;15.550;2023-06-24T07:56:44;3.60;;;3.30;;
20251;SDS011;10284;58.364;15.550;2023-06-24T07:59:09;4.85;;;3.70;;
20251;SDS011;10284;58.364;15.550;2023-06-24T08:01:35;4.90;;;3.30;;
20251;SDS011;10284;58.364;15.550;2023-06-24T08:04:00;3.65;;;3.25;;
20251;SDS011;10284;58.364;15.550;2023-06-24T08:06:25;3.63;;;3.08;;
20251;SDS011;10284;58.364;15.550;2023-06-24T08:08:52;4.05;;;3.50;;
20251;SDS011;10284;58.364;15.550;2023-06-24T08:11:17;5.47;;;2.95;;
20251;SDS011;10284;58.364;15.550;2023-06-24T08:13:43;4.07;;;3.03;;
20251;SDS011;10284;58.364;15.550;2023-06-24T08:16:08;5.05;;;3.88;;
20251;SDS011;10284;58.364;15.550;2023-06-24T08:18:34;3.83;;;3.42;;
20251;SDS011;10284;58.364;15.550;2023-06-24T08:20:59;4.45;;;3.50;;
20251;SDS011;10284;58.364;15.550;2023-06-24T08:23:24;3.30;;;3.00;;
20251;SDS011;10284;58.364;15.550;2023-06-24T08:25:50;3.28;;;2.97;;
20251;SDS011;10284;58.364;15.550;2023-06-24T08:28:15;4.97;;;3.42;;
20251;SDS011;10284;58.364;15.550;2023-06-24T08:30:41;3.67;;;3.13;;
20251;SDS011;10284;58.364;15.550;2023-06-24T08:33:06;4.50;;;3.28;;
20251;SDS011;10284;58.364;15.550;2023-06-24T08:35:32;3.42;;;3.05;;
20251;SDS011;10284;58.364;15.550;2023-06-24T08:37:57;4.35;;;3.60;;
20251;SDS011;10284;58.364;15.550;2023-06-24T08:40:22;5.03;;;3.50;;
20251;SDS011;10284;58.364;15.550;2023-06-24T08:42:48;5.60;;;3.78;;
20251;SDS011;10284;58.364;15.550;2023-06-24T08:45:13;3.92;;;3.40;;
20251;SDS011;10284;58.364;15.550;2023-06-24T08:47:39;3.25;;;2.83;;
20251;SDS011;10284;58.364;15.550;2023-06-24T08:50:08;3.45;;;3.15;;
20251;SDS011;10284;58.364;15.550;2023-06-24T08:52:36;3.72;;;3.35;;
20251;SDS011;10284;58.364;15.550;2023-06-24T08:55:04;3.67;;;3.33;;
20251;SDS011;10284;58.364;15.550;2023-06-24T08:57:29;4.53;;;3.60;;
20251;SDS011;10284;58.364;15.550;2023-06-24T08:59:55;3.30;;;3.00;;
20251;SDS011;10284;58.364;15.550;2023-06-24T09:02:20;5.30;;;3.35;;
20251;SDS011;10284;58.364;15.550;2023-06-24T09:04:46;4.50;;;3.25;;
20251;SDS011;10284;58.364;15.550;2023-06-24T09:07:11;3.97;;;3.33;;
20251;SDS011;10284;58.364;15.550;2023-06-24T09:09:43;4.00;;;3.45;;
20251;SDS011;10284;58.364;15.550;2023-06-24T09:14:38;4.78;;;3.25;;
20251;SDS011;10284;58.364;15.550;2023-06-24T09:17:05;5.22;;;3.40;;
20251;SDS011;10284;58.364;15.550;2023-06-24T09:19:31;3.42;;;3.13;;
20251;SDS011;10284;58.364;15.550;2023-06-24T09:22:02;4.82;;;3.17;;
20251;SDS011;10284;58.364;15.550;2023-06-24T09:24:35;3.67;;;3.38;;
20251;SDS011;10284;58.364;15.550;2023-06-24T09:27:01;3.58;;;3.28;;
20251;SDS011;10284;58.364;15.550;2023-06-24T09:29:28;6.28;;;3.08;;
20251;SDS011;10284;58.364;15.550;2023-06-24T09:31:57;3.55;;;3.25;;
20251;SDS011;10284;58.364;15.550;2023-06-24T09:34:24;3.65;;;3.15;;
20251;SDS011;10284;58.364;15.550;2023-06-24T09:36:51;4.03;;;3.65;;
20251;SDS011;10284;58.364;15.550;2023-06-24T09:39:18;3.90;;;3.47;;
20251;SDS011;10284;58.364;15.550;2023-06-24T09:41:48;4.68;;;3.40;;
20251;SDS011;10284;58.364;15.550;2023-06-24T09:44:15;5.28;;;3.55;;
20251;SDS011;10284;58.364;15.550;2023-06-24T09:46:41;4.05;;;3.70;;
20251;SDS011;10284;58.364;15.550;2023-06-24T09:49:08;3.42;;;3.13;;
20251;SDS011;10284;58.364;15.550;2023-06-24T09:51:36;4.38;;;3.50;;
20251;SDS011;10284;58.364;15.550;2023-06-24T09:54:04;4.30;;;3.03;;
20251;SDS011;10284;58.364;15.550;2023-06-24T09:56:31;3.47;;;3.17;;
20251;SDS011;10284;58.364;15.550;2023-06-24T09:58:58;4.00;;;3.60;;
20251;SDS011;10284;58.364;15.550;2023-06-24T10:01:23;4.35;;;3.65;;
20251;SDS011;10284;58.364;15.550;2023-06-24T10:03:48;4.78;;;3.40;;
20251;SDS011;10284;58.364;15.550;2023-06-24T10:06:14;3.80;;;3.50;;
20251;SDS011;10284;58.364;15.550;2023-06-24T10:08:39;3.72;;;3.40;;
20251;SDS011;10284;58.364;15.550;2023-06-24T10:11:05;4.00;;;3.65;;
20251;SDS011;10284;58.364;15.550;2023-06-24T10:13:30;5.13;;;3.60;;
20251;SDS011;10284;58.364;15.550;2023-06-24T10:15:56;4.63;;;3.28;;
20251;SDS011;10284;58.364;15.550;2023-06-24T10:18:32;4.25;;;3.63;;
20251;SDS011;10284;58.364;15.550;2023-06-24T10:21:01;5.07;;;3.63;;
20251;SDS011;10284;58.364;15.550;2023-06-24T10:23:39;4.97;;;3.20;;
20251;SDS011;10284;58.364;15.550;2023-06-24T10:26:21;5.13;;;3.63;;
20251;SDS011;10284;58.364;15.550;2023-06-24T10:39:46;5.22;;;3.83;;
20251;SDS011;10284;58.364;15.550;2023-06-24T10:45:09;3.58;;;3.28;;
20251;SDS011;10284;58.364;15.550;2023-06-24T10:47:40;3.42;;;3.13;;
20251;SDS011;10284;58.364;15.550;2023-06-24T10:50:10;4.55;;;3.75;;
20251;SDS011;10284;58.364;15.550;2023-06-24T10:52:38;5.85;;;3.55;;
20251;SDS011;10284;58.364;15.550;2023-06-24T10:55:04;4.88;;;3.70;;
20251;SDS011;10284;58.364;15.550;2023-06-24T10:57:30;3.53;;;3.22;;
20251;SDS011;10284;58.364;15.550;2023-06-24T10:59:56;5.30;;;3.83;;
20251;SDS011;10284;58.364;15.550;2023-06-24T11:02:26;5.20;;;3.80;;
20251;SDS011;10284;58.364;15.550;2023-06-24T11:07:19;4.35;;;3.95;;
20251;SDS011;10284;58.364;15.550;2023-06-24T11:09:52;3.50;;;3.20;;
20251;SDS011;10284;58.364;15.550;2023-06-24T11:12:33;4.80;;;4.00;;
20251;SDS011;10284;58.364;15.550;2023-06-24T11:15:02;3.90;;;3.47;;
20251;SDS011;10284;58.364;15.550;2023-06-24T11:17:28;4.07;;;3.50;;
20251;SDS011;10284;58.364;15.550;2023-06-24T11:19:54;4.53;;;3.95;;
20251;SDS011;10284;58.364;15.550;2023-06-24T11:22:20;4.43;;;3.45;;
20251;SDS011;10284;58.364;15.550;2023-06-24T11:24:47;5.30;;;3.85;;
20251;SDS011;10284;58.364;15.550;2023-06-24T11:27:12;4.70;;;3.80;;
20251;SDS011;10284;58.364;15.550;2023-06-24T11:29:38;4.35;;;3.92;;
20251;SDS011;10284;58.364;15.550;2023-06-24T11:32:06;4.75;;;3.85;;
20251;SDS011;10284;58.364;15.550;2023-06-24T11:34:32;4.30;;;3.90;;
20251;SDS011;10284;58.364;15.550;2023-06-24T11:36:58;5.07;;;3.50;;
20251;SDS011;10284;58.364;15.550;2023-06-24T11:39:24;4.20;;;3.80;;
20251;SDS011;10284;58.364;15.550;2023-06-24T11:41:51;4.80;;;3.85;;
20251;SDS011;10284;58.364;15.550;2023-06-24T11:44:17;4.13;;;3.50;;
20251;SDS011;10284;58.364;15.550;2023-06-24T11:46:46;4.82;;;4.05;;
20251;SDS011;10284;58.364;15.550;2023-06-24T11:49:11;5.43;;;3.50;;
20251;SDS011;10284;58.364;15.550;2023-06-24T11:51:44;6.45;;;3.67;;
20251;SDS011;10284;58.364;15.550;2023-06-24T11:54:13;4.22;;;3.83;;
20251;SDS011;10284;58.364;15.550;2023-06-24T11:56:41;3.90;;;3.50;;
20251;SDS011;10284;58.364;15.550;2023-06-24T11:59:16;5.95;;;3.80;;
20251;SDS011;10284;58.364;15.550;2023-06-24T12:01:53;5.40;;;3.50;;
20251;SDS011;10284;58.364;15.550;2023-06-24T12:04:19;4.65;;;4.22;;
20251;SDS011;10284;58.364;15.550;2023-06-24T12:06:45;4.32;;;3.90;;
20251;SDS011;10284;58.364;15.550;2023-06-24T12:09:11;4.25;;;3.85;;
20251;SDS011;10284;58.364;15.550;2023-06-24T12:11:36;5.78;;;3.80;;
20251;SDS011;10284;58.364;15.550;2023-06-24T12:14:02;6.30;;;3.47;;
20251;SDS011;10284;58.364;15.550;2023-06-24T12:16:28;5.05;;;3.70;;
20251;SDS011;10284;58.364;15.550;2023-06-24T12:18:54;4.13;;;3.67;;
20251;SDS011;10284;58.364;15.550;2023-06-24T12:21:20;5.72;;;4.13;;
20251;SDS011;10284;58.364;15.550;2023-06-24T12:23:45;5.05;;;3.67;;
20251;SDS011;10284;58.364;15.550;2023-06-24T12:26:11;7.68;;;3.50;;
20251;SDS011;10284;58.364;15.550;2023-06-24T12:28:37;4.10;;;3.70;;
20251;SDS011;10284;58.364;15.550;2023-06-24T12:31:02;4.25;;;3.85;;
20251;SDS011;10284;58.364;15.550;2023-06-24T12:33:28;3.90;;;3.55;;
20251;SDS011;10284;58.364;15.550;2023-06-24T12:35:54;4.03;;;3.63;;
20251;SDS011;10284;58.364;15.550;2023-06-24T12:38:19;4.63;;;3.60;;
20251;SDS011;10284;58.364;15.550;2023-06-24T12:40:45;3.72;;;3.42;;
20251;SDS011;10284;58.364;15.550;2023-06-24T12:43:10;4.13;;;3.75;;
20251;SDS011;10284;58.364;15.550;2023-06-24T12:45:38;3.97;;;3.58;;
20251;SDS011;10284;58.364;15.550;2023-06-24T12:48:03;4.35;;;3.75;;
20251;SDS011;10284;58.364;15.550;2023-06-24T12:50:29;5.28;;;3.75;;
20251;SDS011;10284;58.364;15.550;2023-06-24T12:52:56;4.47;;;3.88;;
20251;SDS011;10284;58.364;15.550;2023-06-24T12:55:22;4.13;;;3.72;;
20251;SDS011;10284;58.364;15.550;2023-06-24T12:57:48;4.18;;;3.78;;
20251;SDS011;10284;58.364;15.550;2023-06-24T13:00:13;3.90;;;3.53;;
20251;SDS011;10284;58.364;15.550;2023-06-24T13:02:39;3.80;;;3.40;;
20251;SDS011;10284;58.364;15.550;2023-06-24T13:05:04;4.13;;;3.72;;
20251;SDS011;10284;58.364;15.550;2023-06-24T13:07:30;4.88;;;4.15;;
20251;SDS011;10284;58.364;15.550;2023-06-24T13:09:56;3.83;;;3.13;;
20251;SDS011;10284;58.364;15.550;2023-06-24T13:12:21;4.47;;;4.00;;
20251;SDS011;10284;58.364;15.550;2023-06-24T13:14:47;5.13;;;4.22;;
20251;SDS011;10284;58.364;15.550;2023-06-24T13:17:13;5.50;;;4.03;;
20251;SDS011;10284;58.364;15.550;2023-06-24T13:19:38;4.45;;;4.05;;
20251;SDS011;10284;58.364;15.550;2023-06-24T13:22:04;5.40;;;4.20;;
20251;SDS011;10284;58.364;15.550;2023-06-24T13:24:29;5.80;;;3.45;;
20251;SDS011;10284;58.364;15.550;2023-06-24T13:26:55;6.55;;;4.40;;
20251;SDS011;10284;58.364;15.550;2023-06-24T13:29:20;4.35;;;3.58;;
20251;SDS011;10284;58.364;15.550;2023-06-24T13:31:46;4.53;;;4.13;;
20251;SDS011;10284;58.364;15.550;2023-06-24T13:34:11;4.25;;;3.85;;
20251;SDS011;10284;58.364;15.550;2023-06-24T13:36:37;5.13;;;4.35;;
20251;SDS011;10284;58.364;15.550;2023-06-24T13:39:04;5.47;;;3.95;;
20251;SDS011;10284;58.364;15.550;2023-06-24T13:41:30;5.95;;;4.20;;
20251;SDS011;10284;58.364;15.550;2023-06-24T13:44:00;6.38;;;4.15;;
20251;SDS011;10284;58.364;15.550;2023-06-24T13:46:27;4.72;;;3.95;;
20251;SDS011;10284;58.364;15.550;2023-06-24T13:48:53;5.18;;;4.35;;
20251;SDS011;10284;58.364;15.550;2023-06-24T13:51:18;5.10;;;4.18;;
20251;SDS011;10284;58.364;15.550;2023-06-24T13:53:45;5.90;;;3.80;;
20251;SDS011;10284;58.364;15.550;2023-06-24T13:56:11;4.15;;;3.50;;
20251;SDS011;10284;58.364;15.550;2023-06-24T13:58:36;4.63;;;4.05;;
20251;SDS011;10284;58.364;15.550;2023-06-24T14:01:02;4.30;;;3.90;;
20251;SDS011;10284;58.364;15.550;2023-06-24T14:03:28;4.30;;;3.90;;
20251;SDS011;10284;58.364;15.550;2023-06-24T14:05:53;4.75;;;4.03;;
20251;SDS011;10284;58.364;15.550;2023-06-24T14:08:18;4.68;;;3.85;;
20251;SDS011;10284;58.364;15.550;2023-06-24T14:10:44;5.50;;;3.80;;
20251;SDS011;10284;58.364;15.550;2023-06-24T14:13:09;5.30;;;4.03;;
20251;SDS011;10284;58.364;15.550;2023-06-24T14:15:35;4.97;;;3.88;;
20251;SDS011;10284;58.364;15.550;2023-06-24T14:18:00;4.40;;;3.45;;
20251;SDS011;10284;58.364;15.550;2023-06-24T14:20:26;7.03;;;3.65;;
20251;SDS011;10284;58.364;15.550;2023-06-24T14:22:51;5.15;;;3.47;;
20251;SDS011;10284;58.364;15.550;2023-06-24T14:25:17;4.47;;;3.92;;
20251;SDS011;10284;58.364;15.550;2023-06-24T14:27:42;5.43;;;4.00;;
20251;SDS011;10284;58.364;15.550;2023-06-24T14:30:09;4.35;;;3.58;;
20251;SDS011;10284;58.364;15.550;2023-06-24T14:32:34;4.93;;;3.80;;
20251;SDS011;10284;58.364;15.550;2023-06-24T14:35:00;3.83;;;3.42;;
20251;SDS011;10284;58.364;15.550;2023-06-24T14:37:25;5.05;;;3.45;;
20251;SDS011;10284;58.364;15.550;2023-06-24T14:39:51;4.30;;;3.90;;
20251;SDS011;10284;58.364;15.550;2023-06-24T14:42:16;4.10;;;3.70;;
20251;SDS011;10284;58.364;15.550;2023-06-24T14:44:42;4.55;;;3.90;;
20251;SDS011;10284;58.364;15.550;2023-06-24T14:47:07;5.88;;;4.15;;
20251;SDS011;10284;58.364;15.550;2023-06-24T14:49:32;4.10;;;3.80;;
20251;SDS011;10284;58.364;15.550;2023-06-24T14:51:58;6.32;;;4.00;;
20251;SDS011;10284;58.364;15.550;2023-06-24T14:54:23;5.57;;;3.92;;
20251;SDS011;10284;58.364;15.550;2023-06-24T14:56:49;4.25;;;3.70;;